createdAt,value
2022-08-05T00:00:20.460Z,18.57
2022-08-05T00:01:20.246Z,18.62
2022-08-05T00:02:20.492Z,18.65
2022-08-05T00:03:19.403Z,18.62
2022-08-05T00:04:19.397Z,18.66
2022-08-05T00:06:02.063Z,18.72
2022-08-05T00:06:32.470Z,18.68
2022-08-05T00:07:58.741Z,18.74
2022-08-05T00:08:35.083Z,18.83
2022-08-05T00:09:20.220Z,18.79
2022-08-05T00:10:19.335Z,18.86
2022-08-05T00:11:23.932Z,18.86
2022-08-05T00:12:19.310Z,18.76
2022-08-05T00:13:19.795Z,18.66
2022-08-05T00:14:19.288Z,18.69
2022-08-05T00:15:57.852Z,18.78
2022-08-05T00:16:36.532Z,18.69
2022-08-05T00:17:20.382Z,18.71
2022-08-05T00:18:21.815Z,18.65
2022-08-05T00:19:19.234Z,18.66
2022-08-05T00:20:20.395Z,18.59
2022-08-05T00:21:19.221Z,18.50
2022-08-05T00:22:19.204Z,18.49
2022-08-05T00:23:44.374Z,18.39
2022-08-05T00:24:24.727Z,18.46
2022-08-05T00:25:20.196Z,18.49
2022-08-05T00:26:19.160Z,18.54
2022-08-05T00:27:19.151Z,18.47
2022-08-05T00:28:21.099Z,18.49
2022-08-05T00:29:22.371Z,18.41
2022-08-05T00:30:19.120Z,18.36
2022-08-05T00:31:54.113Z,18.34
2022-08-05T00:32:20.141Z,18.35
2022-08-05T00:34:54.548Z,18.35
2022-08-05T00:34:56.128Z,18.35
2022-08-05T00:35:20.417Z,18.39
2022-08-05T00:37:10.483Z,18.39
2022-08-05T00:37:20.318Z,18.42
2022-08-05T00:38:19.048Z,18.44
2022-08-05T00:39:20.102Z,18.36
2022-08-05T00:40:28.069Z,18.35
2022-08-05T00:41:19.005Z,18.42
2022-08-05T00:42:32.259Z,18.41
2022-08-05T00:43:20.019Z,18.39
2022-08-05T00:44:18.976Z,18.38
2022-08-05T00:45:25.026Z,18.34
2022-08-05T00:46:18.959Z,18.35
2022-08-05T00:47:19.966Z,18.35
2022-08-05T00:48:27.700Z,18.39
2022-08-05T00:49:19.954Z,18.31
2022-08-05T00:50:21.058Z,18.28
2022-08-05T00:51:50.224Z,18.28
2022-08-05T00:52:18.893Z,18.21
2022-08-05T00:54:01.085Z,18.23
2022-08-05T00:54:18.913Z,18.25
2022-08-05T00:55:18.991Z,18.21
2022-08-05T00:56:22.752Z,18.14
2022-08-05T00:57:21.374Z,18.07
2022-08-05T00:58:19.200Z,18.07
2022-08-05T00:59:18.816Z,17.98
2022-08-05T01:00:20.013Z,18.05
2022-08-05T01:01:24.995Z,18.02
2022-08-05T01:02:19.809Z,17.95
2022-08-05T01:03:22.524Z,17.95
2022-08-05T01:04:20.132Z,17.95
2022-08-05T01:05:19.791Z,17.87
2022-08-05T01:06:18.747Z,17.87
2022-08-05T01:07:18.730Z,17.89
2022-08-05T01:08:42.368Z,17.86
2022-08-05T01:09:20.021Z,17.79
2022-08-05T01:10:18.703Z,17.87
2022-08-05T01:11:22.621Z,17.86
2022-08-05T01:12:19.703Z,17.79
2022-08-05T01:13:19.408Z,17.83
2022-08-05T01:14:18.671Z,17.83
2022-08-05T01:15:35.642Z,17.81
2022-08-05T01:16:21.062Z,17.80
2022-08-05T01:17:19.653Z,17.81
2022-08-05T01:18:18.613Z,17.91
2022-08-05T01:19:18.620Z,17.92
2022-08-05T01:20:18.665Z,17.96
2022-08-05T01:21:22.968Z,17.95
2022-08-05T01:22:23.914Z,17.94
2022-08-05T01:23:23.439Z,17.91
2022-08-05T01:24:18.548Z,17.91
2022-08-05T01:25:18.532Z,17.86
2022-08-05T01:26:18.525Z,17.87
2022-08-05T01:27:19.467Z,17.81
2022-08-05T01:28:18.501Z,17.81
2022-08-05T01:29:18.499Z,17.71
2022-08-05T01:30:19.059Z,17.73
2022-08-05T01:31:19.495Z,17.70
2022-08-05T01:32:18.834Z,17.68
2022-08-05T01:33:19.632Z,17.70
2022-08-05T01:34:18.438Z,17.63
2022-08-05T01:35:51.873Z,17.66
2022-08-05T01:36:20.965Z,17.71
2022-08-05T01:37:25.218Z,17.71
2022-08-05T01:38:26.798Z,17.68
2022-08-05T01:39:47.247Z,17.70
2022-08-05T01:40:19.403Z,17.70
2022-08-05T01:41:21.005Z,17.60
2022-08-05T01:42:18.352Z,17.53
2022-08-05T01:43:22.241Z,17.49
2022-08-05T01:44:18.338Z,17.53
2022-08-05T01:45:18.312Z,17.54
2022-08-05T01:46:42.396Z,17.54
2022-08-05T01:47:19.321Z,17.53
2022-08-05T01:48:18.284Z,17.49
2022-08-05T01:49:23.972Z,17.49
2022-08-05T01:50:19.289Z,17.49
2022-08-05T01:51:19.282Z,17.47
2022-08-05T01:52:19.108Z,17.46
2022-08-05T01:53:54.668Z,17.45
2022-08-05T01:54:18.209Z,17.42
2022-08-05T01:55:18.202Z,17.39
2022-08-05T01:58:11.074Z,17.30
2022-08-05T01:58:18.726Z,17.35
2022-08-05T01:58:40.710Z,17.33
2022-08-05T01:59:18.156Z,17.27
2022-08-05T02:00:18.143Z,17.33
2022-08-05T02:01:24.666Z,17.35
2022-08-05T02:02:19.249Z,17.20
2022-08-05T02:03:29.238Z,17.22
2022-08-05T02:04:19.148Z,17.21
2022-08-05T02:05:18.089Z,17.21
2022-08-05T02:06:37.508Z,17.21
2022-08-05T02:07:21.848Z,17.21
2022-08-05T02:08:20.472Z,17.15
2022-08-05T02:09:20.646Z,17.10
2022-08-05T02:10:18.036Z,17.17
2022-08-05T02:11:23.675Z,17.18
2022-08-05T02:12:18.006Z,17.17
2022-08-05T02:13:18.001Z,17.09
2022-08-05T02:14:17.984Z,17.10
2022-08-05T02:15:19.756Z,17.06
2022-08-05T02:16:18.029Z,17.03
2022-08-05T02:18:28.019Z,17.02
2022-08-05T02:18:31.092Z,17.06
2022-08-05T02:19:19.103Z,17.02
2022-08-05T02:20:20.678Z,17.00
2022-08-05T02:21:17.922Z,17.02
2022-08-05T02:22:26.120Z,17.05
2022-08-05T02:23:17.889Z,17.03
2022-08-05T02:24:18.083Z,17.05
2022-08-05T02:25:17.867Z,17.05
2022-08-05T02:26:17.853Z,17.03
2022-08-05T02:27:17.849Z,17.03
2022-08-05T02:28:28.391Z,17.03
2022-08-05T02:29:21.657Z,17.05
2022-08-05T02:30:17.823Z,17.06
2022-08-05T02:31:21.056Z,17.00
2022-08-05T02:32:19.755Z,16.99
2022-08-05T02:33:24.345Z,17.00
2022-08-05T02:34:17.769Z,16.99
2022-08-05T02:35:19.134Z,16.99
2022-08-05T02:36:18.778Z,16.98
2022-08-05T02:37:17.741Z,16.98
2022-08-05T02:38:19.392Z,16.90
2022-08-05T02:39:17.762Z,16.96
2022-08-05T02:40:17.704Z,16.96
2022-08-05T02:41:17.969Z,17.00
2022-08-05T02:42:25.950Z,16.92
2022-08-05T02:43:17.672Z,16.96
2022-08-05T02:44:17.662Z,16.96
2022-08-05T02:45:17.648Z,16.92
2022-08-05T02:46:17.637Z,16.95
2022-08-05T02:47:21.867Z,16.98
2022-08-05T02:48:17.614Z,16.95
2022-08-05T02:49:17.603Z,16.96
2022-08-05T02:50:18.021Z,16.88
2022-08-05T02:51:17.589Z,16.85
2022-08-05T02:52:29.849Z,16.88
2022-08-05T02:53:18.893Z,16.84
2022-08-05T02:54:34.842Z,16.88
2022-08-05T02:55:52.160Z,16.78
2022-08-05T02:56:18.932Z,16.81
2022-08-05T02:58:11.823Z,16.81
2022-08-05T02:58:17.503Z,16.82
2022-08-05T02:59:17.494Z,16.77
2022-08-05T03:00:17.482Z,16.87
2022-08-05T03:01:19.388Z,16.87
2022-08-05T03:02:17.462Z,16.91
2022-08-05T03:03:17.448Z,16.88
2022-08-05T03:04:17.441Z,16.82
2022-08-05T03:05:17.433Z,16.87
2022-08-05T03:06:53.880Z,16.85
2022-08-05T03:07:30.869Z,16.85
2022-08-05T03:08:17.395Z,16.87
2022-08-05T03:09:26.922Z,16.85
2022-08-05T03:10:22.002Z,16.85
2022-08-05T03:11:57.555Z,16.84
2022-08-05T03:12:18.377Z,16.82
2022-08-05T03:13:17.344Z,16.84
2022-08-05T03:14:17.331Z,16.84
2022-08-05T03:15:17.321Z,16.85
2022-08-05T03:16:17.309Z,16.91
2022-08-05T03:17:17.299Z,16.87
2022-08-05T03:18:17.564Z,17.00
2022-08-05T03:19:33.748Z,16.96
2022-08-05T03:20:17.263Z,16.95
2022-08-05T03:21:17.257Z,16.99
2022-08-05T03:22:31.813Z,17.00
2022-08-05T03:23:18.257Z,16.98
2022-08-05T03:24:17.221Z,17.03
2022-08-05T03:26:04.027Z,17.06
2022-08-05T03:26:31.733Z,17.00
2022-08-05T03:27:18.213Z,17.09
2022-08-05T03:28:18.826Z,17.14
2022-08-05T03:29:17.302Z,17.15
2022-08-05T03:30:17.155Z,17.15
2022-08-05T03:31:55.356Z,17.10
2022-08-05T03:32:17.155Z,17.14
2022-08-05T03:33:17.126Z,17.10
2022-08-05T03:34:17.108Z,17.10
2022-08-05T03:35:17.098Z,17.20
2022-08-05T03:36:17.089Z,17.21
2022-08-05T03:37:17.078Z,17.15
2022-08-05T03:38:17.065Z,17.17
2022-08-05T03:39:20.106Z,17.06
2022-08-05T03:40:24.233Z,17.09
2022-08-05T03:41:17.032Z,17.06
2022-08-05T03:42:17.022Z,17.10
2022-08-05T03:43:58.434Z,17.10
2022-08-05T03:44:19.999Z,17.09
2022-08-05T03:45:22.353Z,17.17
2022-08-05T03:46:16.978Z,17.14
2022-08-05T03:47:16.969Z,17.17
2022-08-05T03:48:16.956Z,17.18
2022-08-05T03:49:16.950Z,17.20
2022-08-05T03:50:16.934Z,17.20
2022-08-05T03:52:37.668Z,17.18
2022-08-05T03:52:50.074Z,17.18
2022-08-05T03:55:49.952Z,17.21
2022-08-05T03:55:53.359Z,17.20
2022-08-05T03:56:04.946Z,17.21
2022-08-05T03:56:27.754Z,17.30
2022-08-05T03:57:17.950Z,17.18
2022-08-05T03:58:16.847Z,17.21
2022-08-05T03:59:20.421Z,17.18
2022-08-05T04:00:16.826Z,17.15
2022-08-05T04:01:16.854Z,17.15
2022-08-05T04:02:17.491Z,17.14
2022-08-05T04:03:26.653Z,17.18
2022-08-05T04:04:21.083Z,17.14
2022-08-05T04:05:16.772Z,17.17
2022-08-05T04:06:16.761Z,17.17
2022-08-05T04:07:16.803Z,17.20
2022-08-05T04:08:30.421Z,17.20
2022-08-05T04:09:26.121Z,17.25
2022-08-05T04:10:17.601Z,17.27
2022-08-05T04:11:16.704Z,17.20
2022-08-05T04:12:23.619Z,17.22
2022-08-05T04:13:17.709Z,17.18
2022-08-05T04:14:17.927Z,17.20
2022-08-05T04:15:16.798Z,17.24
2022-08-05T04:16:16.649Z,17.22
2022-08-05T04:17:17.739Z,17.27
2022-08-05T04:18:22.461Z,17.32
2022-08-05T04:19:17.646Z,17.27
2022-08-05T04:20:16.600Z,17.30
2022-08-05T04:22:04.944Z,17.32
2022-08-05T04:22:20.420Z,17.33
2022-08-05T04:23:16.575Z,17.40
2022-08-05T04:24:19.396Z,17.36
2022-08-05T04:25:17.578Z,17.40
2022-08-05T04:26:17.289Z,17.35
2022-08-05T04:27:16.633Z,17.28
2022-08-05T04:28:17.209Z,17.35
2022-08-05T04:29:16.507Z,17.28
2022-08-05T04:30:16.490Z,17.35
2022-08-05T04:31:16.482Z,17.33
2022-08-05T04:32:30.653Z,17.30
2022-08-05T04:33:16.466Z,17.30
2022-08-05T04:34:33.379Z,17.36
2022-08-05T04:35:19.653Z,17.36
2022-08-05T04:36:46.006Z,17.38
2022-08-05T04:37:16.483Z,17.39
2022-08-05T04:38:16.403Z,17.33
2022-08-05T04:39:16.530Z,17.36
2022-08-05T04:40:17.102Z,17.42
2022-08-05T04:41:16.374Z,17.38
2022-08-05T04:42:16.407Z,17.39
2022-08-05T04:43:16.915Z,17.45
2022-08-05T04:44:21.425Z,17.39
2022-08-05T04:45:23.058Z,17.38
2022-08-05T04:46:28.328Z,17.40
2022-08-05T04:47:18.749Z,17.36
2022-08-05T04:48:26.893Z,17.39
2022-08-05T04:49:16.285Z,17.33
2022-08-05T04:50:16.273Z,17.36
2022-08-05T04:51:17.291Z,17.36
2022-08-05T04:52:16.252Z,17.42
2022-08-05T04:53:16.239Z,17.40
2022-08-05T04:54:16.227Z,17.49
2022-08-05T04:55:16.216Z,17.47
2022-08-05T04:56:34.844Z,17.54
2022-08-05T04:57:16.231Z,17.55
2022-08-05T04:58:16.193Z,17.66
2022-08-05T04:59:23.149Z,17.63
2022-08-05T05:00:16.162Z,17.70
2022-08-05T05:02:04.022Z,17.70
2022-08-05T05:02:37.567Z,17.63
2022-08-05T05:03:17.152Z,17.70
2022-08-05T05:04:16.115Z,17.68
2022-08-05T05:05:26.496Z,17.66
2022-08-05T05:06:40.534Z,17.63
2022-08-05T05:07:17.321Z,17.63
2022-08-05T05:08:26.561Z,17.54
2022-08-05T05:09:17.765Z,17.54
2022-08-05T05:10:16.066Z,17.57
2022-08-05T05:11:16.042Z,17.55
2022-08-05T05:12:16.027Z,17.53
2022-08-05T05:13:16.024Z,17.54
2022-08-05T05:14:16.358Z,17.58
2022-08-05T05:15:17.501Z,17.60
2022-08-05T05:16:15.986Z,17.63
2022-08-05T05:17:22.778Z,17.73
2022-08-05T05:18:33.093Z,17.73
2022-08-05T05:19:19.469Z,17.70
2022-08-05T05:20:16.971Z,17.79
2022-08-05T05:21:15.982Z,17.73
2022-08-05T05:22:23.427Z,17.77
2022-08-05T05:23:19.722Z,17.66
2022-08-05T05:24:15.897Z,17.68
2022-08-05T05:25:16.995Z,17.76
2022-08-05T05:26:15.881Z,17.83
2022-08-05T05:27:15.945Z,17.81
2022-08-05T05:28:15.859Z,17.92
2022-08-05T05:29:15.846Z,17.99
2022-08-05T05:30:29.664Z,18.04
2022-08-05T05:31:15.828Z,18.05
2022-08-05T05:32:15.880Z,18.09
2022-08-05T05:33:23.474Z,18.13
2022-08-05T05:34:18.064Z,18.10
2022-08-05T05:35:19.998Z,18.04
2022-08-05T05:36:15.777Z,18.07
2022-08-05T05:37:15.867Z,18.09
2022-08-05T05:38:22.388Z,18.11
2022-08-05T05:39:16.826Z,18.11
2022-08-05T05:40:15.889Z,18.14
2022-08-05T05:41:16.389Z,18.11
2022-08-05T05:42:15.703Z,18.16
2022-08-05T05:43:15.695Z,18.14
2022-08-05T05:44:36.777Z,18.10
2022-08-05T05:45:16.697Z,18.10
2022-08-05T05:46:18.004Z,18.10
2022-08-05T05:47:30.600Z,18.10
2022-08-05T05:48:16.663Z,18.14
2022-08-05T05:49:22.976Z,18.13
2022-08-05T05:50:16.434Z,18.23
2022-08-05T05:51:16.153Z,18.23
2022-08-05T05:52:26.457Z,18.26
2022-08-05T05:53:22.247Z,18.26
2022-08-05T05:54:15.570Z,18.17
2022-08-05T05:55:15.555Z,18.19
2022-08-05T05:56:15.543Z,18.14
2022-08-05T05:57:19.278Z,18.07
2022-08-05T05:58:15.519Z,18.07
2022-08-05T05:59:15.512Z,18.04
2022-08-05T06:00:15.500Z,18.05
2022-08-05T06:01:15.553Z,17.99
2022-08-05T06:02:15.476Z,17.96
2022-08-05T06:03:40.255Z,17.92
2022-08-05T06:04:16.545Z,17.89
2022-08-05T06:05:16.901Z,17.96
2022-08-05T06:06:15.437Z,17.95
2022-08-05T06:07:15.591Z,17.99
2022-08-05T06:08:15.407Z,17.91
2022-08-05T06:09:16.665Z,17.91
2022-08-05T06:10:15.387Z,17.89
2022-08-05T06:11:15.373Z,17.86
2022-08-05T06:12:15.614Z,17.92
2022-08-05T06:13:15.348Z,17.91
2022-08-05T06:14:15.340Z,17.94
2022-08-05T06:15:24.162Z,17.95
2022-08-05T06:16:30.749Z,17.99
2022-08-05T06:17:22.129Z,17.94
2022-08-05T06:18:15.296Z,17.95
2022-08-05T06:19:15.287Z,17.96
2022-08-05T06:20:18.729Z,17.94
2022-08-05T06:21:18.629Z,17.94
2022-08-05T06:22:15.256Z,17.98
2022-08-05T06:23:15.243Z,17.94
2022-08-05T06:24:15.243Z,17.99
2022-08-05T06:25:59.695Z,17.99
2022-08-05T06:26:20.880Z,17.99
2022-08-05T06:27:17.251Z,17.98
2022-08-05T06:28:21.249Z,18.04
2022-08-05T06:29:25.490Z,17.95
2022-08-05T06:30:18.090Z,18.02
2022-08-05T06:31:18.230Z,18.01
2022-08-05T06:32:25.644Z,17.92
2022-08-05T06:33:19.094Z,17.98
2022-08-05T06:34:15.121Z,18.01
2022-08-05T06:35:15.448Z,18.01
2022-08-05T06:36:15.099Z,17.99
2022-08-05T06:37:15.090Z,17.96
2022-08-05T06:38:15.077Z,17.99
2022-08-05T06:39:15.113Z,18.05
2022-08-05T06:40:20.726Z,18.04
2022-08-05T06:41:16.074Z,18.01
2022-08-05T06:42:15.034Z,18.10
2022-08-05T06:43:58.838Z,18.07
2022-08-05T06:44:16.042Z,18.11
2022-08-05T06:45:21.220Z,18.10
2022-08-05T06:46:16.020Z,18.10
2022-08-05T06:48:11.313Z,18.17
2022-08-05T06:48:53.074Z,18.11
2022-08-05T06:49:14.953Z,18.16
2022-08-05T06:50:17.339Z,18.19
2022-08-05T06:51:23.866Z,18.17
2022-08-05T06:52:37.410Z,18.21
2022-08-05T06:53:22.490Z,18.25
2022-08-05T06:54:18.912Z,18.25
2022-08-05T06:55:14.889Z,18.21
2022-08-05T06:56:25.896Z,18.20
2022-08-05T06:57:57.615Z,18.19
2022-08-05T06:58:29.274Z,18.13
2022-08-05T06:59:15.037Z,18.11
2022-08-05T07:00:14.832Z,18.16
2022-08-05T07:01:15.890Z,18.07
2022-08-05T07:02:15.070Z,18.05
2022-08-05T07:03:14.795Z,18.11
2022-08-05T07:04:14.788Z,18.13
2022-08-05T07:05:19.563Z,18.17
2022-08-05T07:06:15.310Z,18.26
2022-08-05T07:07:15.086Z,18.23
2022-08-05T07:08:14.756Z,18.29
2022-08-05T07:09:14.742Z,18.26
2022-08-05T07:10:16.268Z,18.34
2022-08-05T07:11:15.211Z,18.36
2022-08-05T07:12:14.698Z,18.38
2022-08-05T07:13:14.687Z,18.41
2022-08-05T07:14:15.547Z,18.44
2022-08-05T07:15:34.165Z,18.44
2022-08-05T07:17:59.178Z,18.49
2022-08-05T07:18:01.977Z,18.51
2022-08-05T07:18:26.965Z,18.41
2022-08-05T07:19:38.950Z,18.49
2022-08-05T07:20:33.408Z,18.44
2022-08-05T07:21:15.628Z,18.41
2022-08-05T07:22:15.806Z,18.46
2022-08-05T07:23:26.433Z,18.44
2022-08-05T07:24:15.617Z,18.51
2022-08-05T07:25:54.103Z,18.49
2022-08-05T07:26:18.402Z,18.53
2022-08-05T07:27:14.540Z,18.59
2022-08-05T07:28:17.221Z,18.56
2022-08-05T07:29:14.504Z,18.56
2022-08-05T07:30:22.913Z,18.53
2022-08-05T07:31:14.486Z,18.51
2022-08-05T07:32:14.625Z,18.51
2022-08-05T07:33:16.813Z,18.49
2022-08-05T07:34:14.454Z,18.54
2022-08-05T07:36:01.814Z,18.50
2022-08-05T07:36:20.771Z,18.50
2022-08-05T07:37:14.420Z,18.51
2022-08-05T07:38:32.704Z,18.51
2022-08-05T07:39:24.848Z,18.47
2022-08-05T07:40:31.818Z,18.46
2022-08-05T07:42:09.395Z,18.42
2022-08-05T07:42:16.438Z,18.44
2022-08-05T07:43:14.776Z,18.44
2022-08-05T07:44:18.920Z,18.47
2022-08-05T07:45:14.327Z,18.39
2022-08-05T07:46:20.786Z,18.38
2022-08-05T07:47:15.333Z,18.39
2022-08-05T07:48:14.299Z,18.35
2022-08-05T07:49:15.328Z,18.31
2022-08-05T07:50:16.549Z,18.35
2022-08-05T07:51:23.571Z,18.39
2022-08-05T07:52:15.275Z,18.35
2022-08-05T07:53:14.234Z,18.34
2022-08-05T07:54:14.226Z,18.31
2022-08-05T07:55:44.002Z,18.29
2022-08-05T07:57:00.837Z,18.32
2022-08-05T07:57:50.496Z,18.29
2022-08-05T07:58:17.804Z,18.29
2022-08-05T07:59:15.199Z,18.29
2022-08-05T08:00:14.160Z,18.39
2022-08-05T08:01:14.264Z,18.36
2022-08-05T08:02:15.773Z,18.41
2022-08-05T08:03:15.933Z,18.36
2022-08-05T08:04:14.116Z,18.31
2022-08-05T08:05:14.099Z,18.31
2022-08-05T08:06:14.093Z,18.34
2022-08-05T08:07:14.099Z,18.46
2022-08-05T08:08:14.075Z,18.36
2022-08-05T08:09:14.052Z,18.32
2022-08-05T08:10:14.044Z,18.25
2022-08-05T08:11:15.877Z,18.23
2022-08-05T08:12:27.266Z,18.29
2022-08-05T08:13:15.034Z,18.28
2022-08-05T08:14:18.974Z,18.25
2022-08-05T08:15:15.917Z,18.28
2022-08-05T08:16:35.424Z,18.25
2022-08-05T08:17:16.177Z,18.29
2022-08-05T08:18:14.755Z,18.34
2022-08-05T08:20:10.866Z,18.36
2022-08-05T08:20:43.977Z,18.44
2022-08-05T08:21:15.956Z,18.50
2022-08-05T08:22:15.852Z,18.54
2022-08-05T08:24:00.120Z,18.54
2022-08-05T08:24:14.910Z,18.57
2022-08-05T08:25:15.663Z,18.54
2022-08-05T08:26:13.860Z,18.57
2022-08-05T08:27:16.628Z,18.59
2022-08-05T08:28:18.671Z,18.51
2022-08-05T08:29:45.106Z,18.59
2022-08-05T08:30:28.493Z,18.62
2022-08-05T08:31:16.386Z,18.66
2022-08-05T08:32:13.811Z,18.59
2022-08-05T08:33:14.443Z,18.65
2022-08-05T08:34:13.775Z,18.51
2022-08-05T08:35:13.929Z,18.53
2022-08-05T08:36:37.558Z,18.59
2022-08-05T08:37:14.764Z,18.56
2022-08-05T08:38:16.597Z,18.54
2022-08-05T08:39:15.801Z,18.50
2022-08-05T08:40:13.720Z,18.53
2022-08-05T08:41:14.152Z,18.57
2022-08-05T08:42:32.495Z,18.68
2022-08-05T08:44:56.416Z,18.76
2022-08-05T08:45:18.820Z,18.83
2022-08-05T08:45:25.337Z,18.82
2022-08-05T08:46:16.196Z,18.87
2022-08-05T08:47:46.794Z,18.90
2022-08-05T08:48:37.611Z,18.94
2022-08-05T08:50:23.236Z,19.05
2022-08-05T08:50:52.590Z,18.90
2022-08-05T08:52:02.325Z,18.99
2022-08-05T08:52:14.676Z,18.91
2022-08-05T08:53:13.564Z,18.91
2022-08-05T08:54:13.801Z,18.79
2022-08-05T08:55:13.677Z,18.62
2022-08-05T08:56:13.535Z,18.51
2022-08-05T08:57:13.574Z,18.59
2022-08-05T08:58:13.516Z,18.62
2022-08-05T08:59:19.219Z,18.69
2022-08-05T09:00:15.634Z,18.65
2022-08-05T09:01:16.916Z,18.69
2022-08-05T09:02:13.501Z,18.69
2022-08-05T09:03:16.088Z,18.75
2022-08-05T09:04:13.489Z,18.82
2022-08-05T09:05:17.944Z,18.74
2022-08-05T09:06:16.982Z,18.78
2022-08-05T09:07:28.239Z,18.60
2022-08-05T09:08:14.441Z,18.69
2022-08-05T09:09:13.395Z,18.69
2022-08-05T09:10:13.381Z,18.62
2022-08-05T09:11:13.878Z,18.54
2022-08-05T09:12:20.527Z,18.62
2022-08-05T09:13:13.348Z,18.64
2022-08-05T09:14:57.070Z,18.64
2022-08-05T09:15:14.351Z,18.68
2022-08-05T09:16:14.696Z,18.72
2022-08-05T09:17:15.970Z,18.78
2022-08-05T09:18:14.322Z,18.86
2022-08-05T09:19:14.644Z,18.89
2022-08-05T09:20:13.276Z,18.93
2022-08-05T09:21:21.223Z,18.90
2022-08-05T09:22:23.341Z,18.91
2022-08-05T09:23:18.688Z,18.89
2022-08-05T09:24:14.255Z,18.91
2022-08-05T09:25:13.682Z,18.93
2022-08-05T09:26:15.856Z,18.94
2022-08-05T09:27:18.845Z,18.96
2022-08-05T09:28:13.188Z,19.02
2022-08-05T09:29:16.240Z,18.96
2022-08-05T09:30:16.485Z,18.97
2022-08-05T09:31:22.615Z,18.96
2022-08-05T09:32:42.299Z,18.89
2022-08-05T09:33:15.273Z,18.84
2022-08-05T09:34:13.183Z,18.86
2022-08-05T09:35:26.451Z,18.89
2022-08-05T09:36:16.645Z,18.96
2022-08-05T09:37:15.168Z,18.94
2022-08-05T09:38:18.046Z,18.96
2022-08-05T09:39:18.316Z,18.97
2022-08-05T09:40:14.167Z,19.05
2022-08-05T09:41:13.044Z,19.05
2022-08-05T09:42:17.763Z,19.01
2022-08-05T09:43:14.054Z,19.10
2022-08-05T09:44:13.022Z,19.15
2022-08-05T09:46:04.875Z,19.07
2022-08-05T09:46:12.997Z,19.10
2022-08-05T09:47:15.612Z,19.23
2022-08-05T09:48:12.972Z,19.17
2022-08-05T09:49:19.398Z,19.05
2022-08-05T09:50:18.219Z,19.06
2022-08-05T09:51:15.363Z,18.90
2022-08-05T09:52:12.928Z,18.93
2022-08-05T09:53:22.994Z,18.97
2022-08-05T09:54:13.934Z,19.02
2022-08-05T09:55:56.848Z,19.01
2022-08-05T09:56:13.619Z,19.09
2022-08-05T09:57:23.142Z,18.96
2022-08-05T09:58:12.861Z,19.02
2022-08-05T09:59:16.872Z,18.84
2022-08-05T10:00:12.841Z,18.78
2022-08-05T10:01:15.120Z,18.82
2022-08-05T10:02:13.869Z,18.99
2022-08-05T10:03:12.808Z,19.07
2022-08-05T10:04:12.872Z,19.30
2022-08-05T10:05:12.789Z,19.32
2022-08-05T10:06:14.756Z,19.20
2022-08-05T10:07:20.032Z,19.28
2022-08-05T10:08:37.009Z,19.38
2022-08-05T10:09:28.326Z,19.21
2022-08-05T10:10:15.178Z,19.24
2022-08-05T10:11:12.721Z,19.24
2022-08-05T10:12:30.530Z,19.15
2022-08-05T10:13:14.659Z,19.16
2022-08-05T10:14:12.692Z,19.13
2022-08-05T10:15:12.681Z,19.13
2022-08-05T10:16:12.670Z,19.16
2022-08-05T10:17:14.106Z,19.10
2022-08-05T10:18:12.645Z,19.05
2022-08-05T10:19:12.634Z,19.01
2022-08-05T10:20:12.623Z,19.05
2022-08-05T10:21:16.344Z,19.09
2022-08-05T10:22:15.606Z,19.09
2022-08-05T10:23:34.617Z,19.13
2022-08-05T10:24:14.007Z,19.21
2022-08-05T10:25:14.222Z,19.25
2022-08-05T10:26:14.044Z,19.38
2022-08-05T10:27:12.597Z,19.40
2022-08-05T10:28:17.245Z,19.57
2022-08-05T10:29:12.525Z,19.53
2022-08-05T10:31:20.685Z,19.47
2022-08-05T10:32:54.586Z,19.47
2022-08-05T10:33:01.265Z,19.50
2022-08-05T10:33:14.920Z,19.45
2022-08-05T10:34:12.518Z,19.60
2022-08-05T10:35:12.464Z,19.61
2022-08-05T10:36:12.478Z,19.64
2022-08-05T10:37:12.457Z,19.68
2022-08-05T10:38:12.426Z,19.65
2022-08-05T10:39:15.128Z,19.78
2022-08-05T10:40:18.189Z,19.78
2022-08-05T10:41:13.881Z,19.92
2022-08-05T10:42:12.387Z,20.07
2022-08-05T10:43:12.544Z,20.07
2022-08-05T10:44:12.401Z,20.10
2022-08-05T10:45:23.368Z,20.01
2022-08-05T10:46:12.373Z,19.95
2022-08-05T10:47:26.248Z,19.79
2022-08-05T10:48:29.717Z,19.78
2022-08-05T10:49:16.623Z,19.79
2022-08-05T10:50:32.472Z,19.61
2022-08-05T10:51:22.421Z,19.71
2022-08-05T10:52:13.302Z,19.76
2022-08-05T10:53:12.267Z,19.75
2022-08-05T10:54:29.897Z,19.70
2022-08-05T10:55:12.243Z,19.64
2022-08-05T10:56:21.240Z,19.68
2022-08-05T10:57:13.253Z,19.65
2022-08-05T10:58:15.573Z,19.71
2022-08-05T11:00:04.324Z,19.78
2022-08-05T11:00:18.664Z,19.78
2022-08-05T11:01:12.180Z,19.72
2022-08-05T11:02:14.608Z,19.87
2022-08-05T11:03:24.396Z,20.02
2022-08-05T11:04:13.170Z,20.19
2022-08-05T11:05:12.142Z,20.40
2022-08-05T11:06:15.755Z,20.64
2022-08-05T11:07:12.119Z,20.83
2022-08-05T11:08:33.920Z,21.11
2022-08-05T11:09:13.182Z,21.13
2022-08-05T11:10:12.083Z,21.18
2022-08-05T11:11:16.826Z,21.21
2022-08-05T11:12:12.077Z,21.27
2022-08-05T11:13:12.219Z,21.31
2022-08-05T11:14:12.079Z,21.36
2022-08-05T11:15:19.941Z,21.26
2022-08-05T11:16:12.015Z,21.01
2022-08-05T11:17:57.232Z,20.93
2022-08-05T11:18:12.169Z,20.82
2022-08-05T11:20:17.416Z,20.83
2022-08-05T11:20:17.842Z,20.91
2022-08-05T11:21:12.142Z,20.96
2022-08-05T11:22:11.954Z,21.05
2022-08-05T11:23:12.006Z,21.19
2022-08-05T11:24:14.771Z,21.27
2022-08-05T11:26:03.161Z,21.30
2022-08-05T11:26:12.937Z,21.33
2022-08-05T11:27:11.899Z,21.36
2022-08-05T11:28:11.885Z,21.28
2022-08-05T11:29:14.373Z,21.30
2022-08-05T11:30:11.868Z,21.27
2022-08-05T11:31:11.883Z,21.24
2022-08-05T11:32:12.876Z,21.09
2022-08-05T11:33:13.750Z,21.08
2022-08-05T11:34:14.795Z,21.01
2022-08-05T11:35:11.820Z,20.93
2022-08-05T11:36:11.965Z,20.96
2022-08-05T11:38:30.622Z,20.88
2022-08-05T11:38:37.005Z,20.83
2022-08-05T11:39:13.664Z,20.68
2022-08-05T11:40:11.758Z,20.53
2022-08-05T11:41:35.103Z,20.53
2022-08-05T11:42:11.786Z,20.60
2022-08-05T11:43:11.728Z,20.60
2022-08-05T11:44:11.720Z,20.64
2022-08-05T11:45:23.260Z,20.68
2022-08-05T11:46:15.611Z,20.66
2022-08-05T11:47:15.101Z,20.73
2022-08-05T11:48:11.700Z,20.71
2022-08-05T11:49:11.903Z,20.79
2022-08-05T11:50:14.374Z,20.91
2022-08-05T11:51:11.639Z,20.96
2022-08-05T11:52:12.683Z,21.05
2022-08-05T11:53:11.621Z,21.01
2022-08-05T11:54:11.614Z,21.13
2022-08-05T11:55:12.602Z,21.36
2022-08-05T11:56:11.605Z,21.61
2022-08-05T11:57:25.089Z,21.89
2022-08-05T11:58:12.170Z,21.85
2022-08-05T11:59:13.831Z,21.79
2022-08-05T12:00:11.739Z,21.89
2022-08-05T12:01:11.534Z,21.99
2022-08-05T12:02:12.134Z,22.15
2022-08-05T12:03:11.533Z,22.33
2022-08-05T12:04:11.498Z,22.26
2022-08-05T12:05:18.008Z,22.33
2022-08-05T12:06:12.505Z,22.51
2022-08-05T12:07:11.472Z,22.66
2022-08-05T12:08:11.883Z,22.81
2022-08-05T12:09:19.982Z,22.94
2022-08-05T12:10:12.569Z,22.89
2022-08-05T12:11:11.424Z,22.76
2022-08-05T12:12:12.441Z,22.63
2022-08-05T12:13:15.882Z,22.74
2022-08-05T12:14:11.402Z,22.63
2022-08-05T12:15:16.457Z,22.56
2022-08-05T12:16:14.797Z,22.48
2022-08-05T12:17:57.840Z,22.51
2022-08-05T12:18:12.514Z,22.45
2022-08-05T12:20:26.719Z,22.38
2022-08-05T12:20:27.462Z,22.36
2022-08-05T12:21:11.595Z,22.49
2022-08-05T12:22:11.306Z,23.03
2022-08-05T12:23:11.297Z,23.23
2022-08-05T12:24:11.287Z,23.79
2022-08-05T12:25:14.302Z,24.11
2022-08-05T12:26:11.263Z,23.82
2022-08-05T12:27:21.498Z,23.71
2022-08-05T12:28:11.241Z,23.72
2022-08-05T12:29:15.842Z,23.44
2022-08-05T12:30:15.323Z,23.22
2022-08-05T12:31:11.212Z,22.69
2022-08-05T12:32:12.228Z,22.60
2022-08-05T12:33:27.947Z,22.49
2022-08-05T12:34:20.272Z,22.42
2022-08-05T12:35:12.222Z,22.24
2022-08-05T12:36:11.226Z,22.24
2022-08-05T12:37:17.403Z,22.20
2022-08-05T12:38:11.140Z,22.17
2022-08-05T12:39:11.247Z,22.08
2022-08-05T12:40:11.394Z,21.90
2022-08-05T12:41:13.123Z,21.82
2022-08-05T12:42:14.772Z,21.74
2022-08-05T12:43:11.084Z,21.71
2022-08-05T12:44:11.423Z,21.71
2022-08-05T12:45:11.382Z,21.59
2022-08-05T12:46:12.393Z,21.59
2022-08-05T12:47:12.491Z,21.52
2022-08-05T12:48:27.190Z,21.42
2022-08-05T12:49:13.889Z,21.30
2022-08-05T12:50:11.008Z,21.13
2022-08-05T12:52:10.949Z,21.05
2022-08-05T12:52:23.853Z,21.08